Time;durP1;ratioP1;P1;durP2;ratioP2;P2;SDS_P1;SDS_P2;PMS_P1;PMS_P2;Temp;Humidity;BMP_temperature;BMP_pressure;BME280_temperature;BME280_humidity;BME280_pressure;Samples;Min_cycle;Max_cycle;Signal;HPM_P1;HPM_P2
2022/04/12 00:02:16;;;;;;;11.13;3.97;;;;;;;;;;4991548;28;20277;-70
2022/04/12 00:04:41;;;;;;;7.95;3.38;;;;;;;;;;4976433;28;20277;-70
2022/04/12 00:07:06;;;;;;;8.07;2.88;;;;;;;;;;4990338;28;20291;-71
2022/04/12 00:09:32;;;;;;;11.17;4.13;;;;;;;;;;4992694;28;20026;-69
2022/04/12 00:11:58;;;;;;;8.75;3.80;;;;;;;;;;5013706;23;20847;-66
2022/04/12 00:14:24;;;;;;;8.60;3.78;;;;;;;;;;4989542;28;20070;-66
2022/04/12 00:19:02;;;;;;;7.32;3.78;;;;;;;;;;4988208;28;20447;-66
2022/04/12 00:19:34;;;;;;;7.63;4.13;;;;;;;;;;4989450;28;20022;-66
2022/04/12 00:22:00;;;;;;;11.82;3.80;;;;;;;;;;4974191;28;20028;-64
2022/04/12 00:24:25;;;;;;;12.77;4.30;;;;;;;;;;4989443;28;20058;-64
2022/04/12 00:26:50;;;;;;;9.02;3.10;;;;;;;;;;4995296;28;20700;-64
2022/04/12 00:29:15;;;;;;;8.07;3.75;;;;;;;;;;4998906;28;20425;-64
2022/04/12 00:31:40;;;;;;;11.65;4.50;;;;;;;;;;4991574;28;20455;-64
2022/04/12 00:34:06;;;;;;;8.03;4.43;;;;;;;;;;4989586;28;20034;-64
2022/04/12 00:36:31;;;;;;;8.87;4.27;;;;;;;;;;4992169;28;20305;-63
2022/04/12 00:38:56;;;;;;;6.07;3.40;;;;;;;;;;4990419;28;20376;-65
2022/04/12 00:41:21;;;;;;;9.65;3.75;;;;;;;;;;4989402;28;20272;-63
2022/04/12 00:43:46;;;;;;;7.97;4.28;;;;;;;;;;4997796;28;20022;-64
2022/04/12 00:46:12;;;;;;;11.27;3.47;;;;;;;;;;4992599;28;20022;-64
2022/04/12 00:48:37;;;;;;;10.48;4.18;;;;;;;;;;4994889;28;20045;-64
2022/04/12 00:51:02;;;;;;;9.07;3.63;;;;;;;;;;4991576;28;20030;-64
2022/04/12 00:53:28;;;;;;;9.43;3.70;;;;;;;;;;4992457;28;20266;-64
2022/04/12 00:55:53;;;;;;;12.48;3.88;;;;;;;;;;4993702;28;20076;-64
2022/04/12 00:58:18;;;;;;;10.15;3.80;;;;;;;;;;4992905;28;20386;-64
2022/04/12 01:00:44;;;;;;;9.30;3.83;;;;;;;;;;4993399;28;20046;-64
2022/04/12 01:03:09;;;;;;;7.97;3.15;;;;;;;;;;4998757;28;20026;-64
2022/04/12 01:05:35;;;;;;;10.15;3.55;;;;;;;;;;4992912;28;20026;-64
2022/04/12 01:08:01;;;;;;;8.65;4.15;;;;;;;;;;4993753;28;20033;-64
2022/04/12 01:10:26;;;;;;;8.90;3.90;;;;;;;;;;4991033;28;20081;-64
2022/04/12 01:12:52;;;;;;;6.50;3.65;;;;;;;;;;4997238;28;20030;-64
2022/04/12 01:15:19;;;;;;;7.45;3.75;;;;;;;;;;4991798;28;20065;-64
2022/04/12 01:17:44;;;;;;;7.88;4.05;;;;;;;;;;4994413;28;20042;-65
2022/04/12 01:20:10;;;;;;;10.20;3.88;;;;;;;;;;4992282;28;20442;-64
2022/04/12 01:22:38;;;;;;;9.30;4.05;;;;;;;;;;4992092;28;20010;-64
2022/04/12 01:25:03;;;;;;;8.48;3.67;;;;;;;;;;4996940;28;20483;-64
2022/04/12 01:27:29;;;;;;;7.75;3.60;;;;;;;;;;4992768;28;20033;-64
2022/04/12 01:29:54;;;;;;;6.97;3.42;;;;;;;;;;4997567;28;20022;-64
2022/04/12 01:32:19;;;;;;;7.95;3.85;;;;;;;;;;4994498;28;20026;-64
2022/04/12 01:34:44;;;;;;;6.97;3.47;;;;;;;;;;4996864;28;20030;-64
2022/04/12 01:37:09;;;;;;;9.57;3.55;;;;;;;;;;4992436;28;20050;-64
2022/04/12 01:39:35;;;;;;;7.88;3.80;;;;;;;;;;4991164;28;20089;-65
2022/04/12 01:42:00;;;;;;;10.00;3.38;;;;;;;;;;4992208;28;20077;-64
2022/04/12 01:44:25;;;;;;;6.87;3.30;;;;;;;;;;4998634;28;20049;-64
2022/04/12 01:46:50;;;;;;;6.50;3.40;;;;;;;;;;4992902;28;20835;-64
2022/04/12 01:49:16;;;;;;;5.88;3.00;;;;;;;;;;4995032;28;20033;-65
2022/04/12 01:51:41;;;;;;;6.00;3.10;;;;;;;;;;4991434;28;20050;-65
2022/04/12 01:54:07;;;;;;;7.60;3.83;;;;;;;;;;4991333;28;20034;-64
2022/04/12 01:56:32;;;;;;;8.10;3.88;;;;;;;;;;4992468;28;20029;-64
2022/04/12 01:58:58;;;;;;;8.88;3.88;;;;;;;;;;4994270;28;20022;-64
2022/04/12 02:01:23;;;;;;;8.55;3.13;;;;;;;;;;4992077;28;20022;-64
2022/04/12 02:03:49;;;;;;;6.43;3.67;;;;;;;;;;4997617;28;20033;-64
2022/04/12 02:06:14;;;;;;;6.87;3.10;;;;;;;;;;4991672;28;20409;-65
2022/04/12 02:08:40;;;;;;;8.18;2.95;;;;;;;;;;4991800;28;20749;-64
2022/04/12 02:11:06;;;;;;;8.48;2.92;;;;;;;;;;4991838;28;20022;-64
2022/04/12 02:13:31;;;;;;;9.40;3.00;;;;;;;;;;4993257;28;20030;-64
2022/04/12 02:15:56;;;;;;;6.07;3.08;;;;;;;;;;4991777;28;20085;-64
2022/04/12 02:18:21;;;;;;;5.18;3.03;;;;;;;;;;4991470;28;20026;-65
2022/04/12 02:20:47;;;;;;;10.33;2.63;;;;;;;;;;4992315;28;20023;-64
2022/04/12 02:23:12;;;;;;;5.65;2.85;;;;;;;;;;4995340;28;20332;-64
2022/04/12 02:25:37;;;;;;;8.68;3.80;;;;;;;;;;4991153;28;20065;-64
2022/04/12 02:28:03;;;;;;;9.80;3.42;;;;;;;;;;4991567;28;20022;-64
2022/04/12 02:30:28;;;;;;;5.65;2.45;;;;;;;;;;4991095;28;20390;-64
2022/04/12 02:32:53;;;;;;;10.50;3.38;;;;;;;;;;4992185;28;20019;-64
2022/04/12 02:35:18;;;;;;;5.53;2.40;;;;;;;;;;4989943;28;20034;-64
2022/04/12 02:37:43;;;;;;;4.53;2.58;;;;;;;;;;4991492;28;20364;-64
2022/04/12 02:40:09;;;;;;;6.38;3.30;;;;;;;;;;4990975;28;20088;-64
2022/04/12 02:42:34;;;;;;;6.15;3.30;;;;;;;;;;4991191;28;20014;-64
2022/04/12 02:44:59;;;;;;;10.73;3.47;;;;;;;;;;4993076;28;20053;-65
2022/04/12 02:47:25;;;;;;;3.27;1.80;;;;;;;;;;4993861;28;20315;-64
2022/04/12 02:49:50;;;;;;;7.50;3.70;;;;;;;;;;4995685;28;20650;-64
2022/04/12 02:52:15;;;;;;;5.60;3.00;;;;;;;;;;4992401;28;20023;-64
2022/04/12 02:54:40;;;;;;;8.00;2.40;;;;;;;;;;4991111;28;20297;-64
2022/04/12 02:57:06;;;;;;;6.78;3.50;;;;;;;;;;4994150;28;20745;-64
2022/04/12 02:59:31;;;;;;;4.90;2.88;;;;;;;;;;4989041;28;20022;-64
2022/04/12 03:01:56;;;;;;;7.38;3.33;;;;;;;;;;4991377;28;20033;-64
2022/04/12 03:04:21;;;;;;;10.68;3.72;;;;;;;;;;4975696;28;20030;-64
2022/04/12 03:06:47;;;;;;;9.43;4.38;;;;;;;;;;4989454;28;20029;-64
2022/04/12 03:09:12;;;;;;;6.93;3.70;;;;;;;;;;4991970;28;20080;-64
2022/04/12 03:11:39;;;;;;;5.97;3.70;;;;;;;;;;4990981;28;20670;-65
2022/04/12 03:14:04;;;;;;;6.55;2.38;;;;;;;;;;4996370;28;20060;-64
2022/04/12 03:16:29;;;;;;;7.77;3.67;;;;;;;;;;4990719;28;20491;-64
2022/04/12 03:18:54;;;;;;;8.30;3.23;;;;;;;;;;4992255;28;20285;-65
2022/04/12 03:21:19;;;;;;;7.95;2.78;;;;;;;;;;4990503;28;20273;-63
2022/04/12 03:23:45;;;;;;;5.00;2.45;;;;;;;;;;4990160;28;20022;-64
2022/04/12 03:26:10;;;;;;;6.55;3.30;;;;;;;;;;4991226;28;20034;-64
2022/04/12 03:28:35;;;;;;;9.88;3.50;;;;;;;;;;4990180;28;20022;-64
2022/04/12 03:31:00;;;;;;;7.43;3.03;;;;;;;;;;4991002;28;20093;-64
2022/04/12 03:33:25;;;;;;;2.33;1.23;;;;;;;;;;4996204;28;20041;-64
2022/04/12 03:35:51;;;;;;;6.53;3.40;;;;;;;;;;4988778;28;20109;-64
2022/04/12 03:38:16;;;;;;;5.83;2.83;;;;;;;;;;4990394;28;20924;-64
2022/04/12 03:40:42;;;;;;;6.63;3.33;;;;;;;;;;4988826;28;20273;-64
2022/04/12 03:43:07;;;;;;;7.03;2.72;;;;;;;;;;4989067;28;20110;-65
2022/04/12 03:45:33;;;;;;;8.70;4.00;;;;;;;;;;4989318;28;20663;-64
2022/04/12 03:47:58;;;;;;;7.63;2.95;;;;;;;;;;4993183;28;20387;-64
2022/04/12 03:50:23;;;;;;;8.20;3.55;;;;;;;;;;4988322;28;20025;-64
2022/04/12 03:52:49;;;;;;;11.35;3.40;;;;;;;;;;4990388;28;20026;-65
2022/04/12 03:55:14;;;;;;;15.20;3.83;;;;;;;;;;4989757;28;20034;-65
2022/04/12 03:57:39;;;;;;;6.72;3.53;;;;;;;;;;4990427;28;20030;-65
2022/04/12 04:00:09;;;;;;;5.65;3.30;;;;;;;;;;4988892;28;20486;-65
2022/04/12 04:02:34;;;;;;;4.55;2.35;;;;;;;;;;4993223;28;20101;-64
2022/04/12 04:05:00;;;;;;;9.48;1.88;;;;;;;;;;4988597;28;20505;-64
2022/04/12 04:07:25;;;;;;;3.83;1.98;;;;;;;;;;4990402;28;20028;-64
2022/04/12 04:09:50;;;;;;;7.72;3.10;;;;;;;;;;4990200;28;20061;-65
2022/04/12 04:12:16;;;;;;;6.37;3.07;;;;;;;;;;4989450;28;20034;-64
2022/04/12 04:14:42;;;;;;;6.53;3.05;;;;;;;;;;4991190;28;20262;-64
2022/04/12 04:17:08;;;;;;;7.00;2.85;;;;;;;;;;4989499;28;20054;-64
2022/04/12 04:19:33;;;;;;;6.50;2.40;;;;;;;;;;4990137;28;20057;-64
2022/04/12 04:21:58;;;;;;;3.13;1.90;;;;;;;;;;4990379;28;20030;-64
2022/04/12 04:24:23;;;;;;;5.17;3.23;;;;;;;;;;4990536;28;20264;-65
2022/04/12 04:26:54;;;;;;;5.83;2.30;;;;;;;;;;4991072;28;20258;-64
2022/04/12 04:29:20;;;;;;;10.65;2.70;;;;;;;;;;4990678;28;20266;-64
2022/04/12 04:31:45;;;;;;;7.13;2.97;;;;;;;;;;4991003;28;20041;-65
2022/04/12 04:34:10;;;;;;;3.43;1.90;;;;;;;;;;4986706;28;20678;-64
2022/04/12 04:36:35;;;;;;;5.77;2.80;;;;;;;;;;4989909;28;20269;-64
2022/04/12 04:39:01;;;;;;;2.65;1.60;;;;;;;;;;4989862;28;20900;-64
2022/04/12 04:41:27;;;;;;;7.45;1.88;;;;;;;;;;4990361;28;20508;-64
2022/04/12 04:43:52;;;;;;;5.40;2.00;;;;;;;;;;4989881;28;20102;-65
2022/04/12 04:46:18;;;;;;;9.65;1.98;;;;;;;;;;4990509;28;20065;-64
2022/04/12 04:48:43;;;;;;;8.30;2.17;;;;;;;;;;4989616;28;20018;-64
2022/04/12 04:51:08;;;;;;;3.90;1.75;;;;;;;;;;4988523;28;20034;-64
2022/04/12 04:53:36;;;;;;;3.15;1.60;;;;;;;;;;4988982;28;20390;-65
2022/04/12 04:56:02;;;;;;;5.43;2.38;;;;;;;;;;4990213;28;20117;-65
2022/04/12 04:58:27;;;;;;;8.82;2.85;;;;;;;;;;4990593;28;20105;-64
2022/04/12 05:00:52;;;;;;;3.37;1.53;;;;;;;;;;4988499;28;20033;-65
2022/04/12 05:03:17;;;;;;;4.22;1.85;;;;;;;;;;4989602;28;20281;-64
2022/04/12 05:05:42;;;;;;;9.52;2.97;;;;;;;;;;4989232;28;20022;-64
2022/04/12 05:08:08;;;;;;;3.17;2.10;;;;;;;;;;4989078;28;20081;-64
2022/04/12 05:10:33;;;;;;;7.60;2.55;;;;;;;;;;4986862;28;20022;-65
2022/04/12 05:12:59;;;;;;;10.88;3.28;;;;;;;;;;4986298;28;20056;-65
2022/04/12 05:15:24;;;;;;;4.63;2.58;;;;;;;;;;4988151;28;20037;-65
2022/04/12 05:17:50;;;;;;;5.32;2.55;;;;;;;;;;4987546;28;20030;-64
2022/04/12 05:20:15;;;;;;;8.02;2.80;;;;;;;;;;4987025;28;20028;-64
2022/04/12 05:22:40;;;;;;;8.23;2.55;;;;;;;;;;4986903;28;20045;-65
2022/04/12 05:25:06;;;;;;;7.17;2.90;;;;;;;;;;4987643;28;20020;-65
2022/04/12 05:27:31;;;;;;;4.45;2.28;;;;;;;;;;4988576;28;20282;-65
2022/04/12 05:29:57;;;;;;;2.08;1.35;;;;;;;;;;4989624;28;20109;-64
2022/04/12 05:32:23;;;;;;;7.60;2.92;;;;;;;;;;4993850;28;20017;-64
2022/04/12 05:34:48;;;;;;;6.22;2.28;;;;;;;;;;4971076;28;20469;-64
2022/04/12 05:37:13;;;;;;;2.60;1.80;;;;;;;;;;4989102;28;20045;-64
2022/04/12 05:39:38;;;;;;;6.57;2.63;;;;;;;;;;4987870;28;20097;-64
2022/04/12 05:42:04;;;;;;;6.93;2.97;;;;;;;;;;4991257;28;20286;-64
2022/04/12 05:44:32;;;;;;;6.25;2.47;;;;;;;;;;4989930;28;20325;-64
2022/04/12 05:46:57;;;;;;;6.28;3.03;;;;;;;;;;4991584;28;20022;-65
2022/04/12 05:49:23;;;;;;;7.82;3.30;;;;;;;;;;4988416;28;20070;-65
2022/04/12 05:51:48;;;;;;;6.90;2.95;;;;;;;;;;4989576;28;20364;-64
2022/04/12 05:54:13;;;;;;;6.97;2.20;;;;;;;;;;4995169;28;20031;-64
2022/04/12 05:56:38;;;;;;;7.23;2.27;;;;;;;;;;4986834;28;20085;-64
2022/04/12 05:59:06;;;;;;;6.20;2.50;;;;;;;;;;4988394;28;20297;-64
2022/04/12 06:01:31;;;;;;;4.20;1.35;;;;;;;;;;4988440;28;20018;-64
2022/04/12 06:03:56;;;;;;;10.05;2.88;;;;;;;;;;4987907;28;20041;-65
2022/04/12 06:06:21;;;;;;;5.77;2.47;;;;;;;;;;4996091;28;20571;-64
2022/04/12 06:08:46;;;;;;;11.43;3.20;;;;;;;;;;4997073;28;20277;-65
2022/04/12 06:11:12;;;;;;;5.00;2.75;;;;;;;;;;4998170;28;20712;-65
2022/04/12 06:13:37;;;;;;;6.63;2.60;;;;;;;;;;4989992;28;20026;-65
2022/04/12 06:16:02;;;;;;;8.63;3.50;;;;;;;;;;4988761;28;20285;-65
2022/04/12 06:18:27;;;;;;;8.43;3.67;;;;;;;;;;4989255;28;20638;-65
2022/04/12 06:20:52;;;;;;;8.07;3.97;;;;;;;;;;4990084;28;20027;-66
2022/04/12 06:23:18;;;;;;;9.30;3.67;;;;;;;;;;4988199;28;20347;-65
2022/04/12 06:25:44;;;;;;;8.82;3.50;;;;;;;;;;4992041;28;20379;-65
2022/04/12 06:28:09;;;;;;;4.72;2.83;;;;;;;;;;4995330;28;20038;-64
2022/04/12 06:30:34;;;;;;;5.03;2.40;;;;;;;;;;4990638;28;20032;-64
2022/04/12 06:32:59;;;;;;;6.22;2.85;;;;;;;;;;4991762;28;20273;-65
2022/04/12 06:35:24;;;;;;;9.45;3.72;;;;;;;;;;4992078;28;20441;-65
2022/04/12 06:37:53;;;;;;;7.83;2.63;;;;;;;;;;4991695;28;20046;-65
2022/04/12 06:40:19;;;;;;;5.90;2.83;;;;;;;;;;4992176;28;20269;-65
2022/04/12 06:42:45;;;;;;;7.25;3.17;;;;;;;;;;4972957;28;20026;-64
2022/04/12 06:45:13;;;;;;;4.78;2.00;;;;;;;;;;4987885;28;20053;-65
2022/04/12 06:47:41;;;;;;;6.50;3.15;;;;;;;;;;4989316;28;20030;-65
2022/04/12 06:50:07;;;;;;;4.80;2.85;;;;;;;;;;4989732;28;20030;-66
2022/04/12 06:52:32;;;;;;;6.72;2.95;;;;;;;;;;4990139;28;20403;-66
2022/04/12 06:54:58;;;;;;;4.85;2.40;;;;;;;;;;4991515;28;20029;-66
2022/04/12 06:57:23;;;;;;;4.28;1.98;;;;;;;;;;4992119;28;20033;-66
2022/04/12 06:59:48;;;;;;;3.93;2.50;;;;;;;;;;4993152;28;20027;-66
2022/04/12 07:02:14;;;;;;;9.88;2.25;;;;;;;;;;4993504;28;20297;-66
2022/04/12 07:04:39;;;;;;;7.68;2.15;;;;;;;;;;4993222;28;20029;-66
2022/04/12 07:07:04;;;;;;;7.22;3.20;;;;;;;;;;4992126;28;20022;-66
2022/04/12 07:09:30;;;;;;;7.72;2.08;;;;;;;;;;4996510;28;20018;-66
2022/04/12 07:11:56;;;;;;;6.25;3.50;;;;;;;;;;4990465;28;20376;-66
2022/04/12 07:14:21;;;;;;;6.03;2.10;;;;;;;;;;4989011;28;20037;-66
2022/04/12 07:16:46;;;;;;;4.95;2.40;;;;;;;;;;4990345;28;20023;-66
2022/04/12 07:19:12;;;;;;;6.68;1.80;;;;;;;;;;4993006;28;20037;-66
2022/04/12 07:21:37;;;;;;;5.80;2.42;;;;;;;;;;4989076;28;20022;-66
2022/04/12 07:24:05;;;;;;;5.25;2.10;;;;;;;;;;4989206;28;20043;-66
2022/04/12 07:26:31;;;;;;;5.53;2.20;;;;;;;;;;4992305;28;20482;-66
2022/04/12 07:28:56;;;;;;;10.32;3.60;;;;;;;;;;4989556;28;20030;-66
2022/04/12 07:31:21;;;;;;;5.43;2.63;;;;;;;;;;4988359;28;20046;-66
2022/04/12 07:33:46;;;;;;;10.98;2.58;;;;;;;;;;4993825;28;20033;-66
2022/04/12 07:36:11;;;;;;;4.63;2.47;;;;;;;;;;4999271;28;20215;-66
2022/04/12 07:38:37;;;;;;;7.03;3.47;;;;;;;;;;4987974;28;20363;-66
2022/04/12 07:41:02;;;;;;;12.07;2.80;;;;;;;;;;4987230;28;20364;-66
2022/04/12 07:43:27;;;;;;;2.20;1.13;;;;;;;;;;4990581;28;20018;-66
2022/04/12 07:45:52;;;;;;;5.13;2.50;;;;;;;;;;4990832;28;20030;-66
2022/04/12 07:48:18;;;;;;;6.65;2.95;;;;;;;;;;4992389;28;20019;-66
2022/04/12 07:50:43;;;;;;;6.55;2.80;;;;;;;;;;4989716;28;20032;-66
2022/04/12 07:53:08;;;;;;;5.38;2.22;;;;;;;;;;4988028;28;20030;-66
2022/04/12 07:55:34;;;;;;;4.00;2.23;;;;;;;;;;4990975;28;20445;-66
2022/04/12 07:57:59;;;;;;;4.97;2.00;;;;;;;;;;4991195;28;20285;-68
2022/04/12 08:00:24;;;;;;;4.07;1.93;;;;;;;;;;4988422;28;20065;-67
2022/04/12 08:02:49;;;;;;;2.50;1.65;;;;;;;;;;4990009;28;20280;-67
2022/04/12 08:05:15;;;;;;;4.30;2.33;;;;;;;;;;4989166;28;20033;-67
2022/04/12 08:07:47;;;;;;;4.90;1.75;;;;;;;;;;4989398;28;20026;-67
2022/04/12 08:10:12;;;;;;;8.70;3.13;;;;;;;;;;4989941;28;20109;-67
2022/04/12 08:12:37;;;;;;;6.55;3.10;;;;;;;;;;4989058;28;20105;-67
2022/04/12 08:15:05;;;;;;;3.43;1.93;;;;;;;;;;4989478;28;20030;-67
2022/04/12 08:17:30;;;;;;;8.70;3.08;;;;;;;;;;4988098;28;20080;-67
2022/04/12 08:19:56;;;;;;;3.90;2.77;;;;;;;;;;4987473;28;20014;-66
2022/04/12 08:22:22;;;;;;;5.03;2.80;;;;;;;;;;4987668;28;20176;-66
2022/04/12 08:24:47;;;;;;;4.07;1.50;;;;;;;;;;4989520;28;20102;-67
2022/04/12 08:27:13;;;;;;;2.35;1.63;;;;;;;;;;4989116;28;20026;-66
2022/04/12 08:29:38;;;;;;;4.55;2.10;;;;;;;;;;4990199;28;20113;-66
2022/04/12 08:32:03;;;;;;;5.45;2.40;;;;;;;;;;4994967;28;20026;-66
2022/04/12 08:34:29;;;;;;;4.18;1.92;;;;;;;;;;4997801;28;20101;-67
2022/04/12 08:36:54;;;;;;;2.58;1.38;;;;;;;;;;4988993;28;20026;-66
2022/04/12 08:39:19;;;;;;;6.30;2.13;;;;;;;;;;4989016;28;20395;-66
2022/04/12 08:41:44;;;;;;;6.88;2.65;;;;;;;;;;4989937;28;20281;-66
2022/04/12 08:44:10;;;;;;;1.65;1.17;;;;;;;;;;4989357;28;20019;-66
2022/04/12 08:46:36;;;;;;;2.20;1.33;;;;;;;;;;4989230;28;20018;-66
2022/04/12 08:49:01;;;;;;;12.50;2.20;;;;;;;;;;4987011;28;20506;-66
2022/04/12 08:51:28;;;;;;;4.28;1.48;;;;;;;;;;4988710;28;20026;-66
2022/04/12 08:53:55;;;;;;;9.20;2.55;;;;;;;;;;4992064;28;20117;-66
2022/04/12 08:56:21;;;;;;;1.95;1.13;;;;;;;;;;4986652;28;20444;-66
2022/04/12 08:58:46;;;;;;;3.65;2.15;;;;;;;;;;4995055;28;20062;-66
2022/04/12 09:01:12;;;;;;;5.50;1.10;;;;;;;;;;4997272;28;20533;-66
2022/04/12 09:03:37;;;;;;;3.67;1.10;;;;;;;;;;4995703;28;20352;-66
2022/04/12 09:06:02;;;;;;;3.05;1.15;;;;;;;;;;4993217;28;20110;-66
2022/04/12 09:08:31;;;;;;;3.10;1.17;;;;;;;;;;4995902;28;20292;-66
2022/04/12 09:11:03;;;;;;;1.83;0.75;;;;;;;;;;4990243;28;20678;-66
2022/04/12 09:13:29;;;;;;;2.15;0.98;;;;;;;;;;4992961;28;20379;-66
2022/04/12 09:15:55;;;;;;;17.63;1.95;;;;;;;;;;4991880;28;20022;-66
2022/04/12 09:18:40;;;;;;;4.00;2.08;;;;;;;;;;4988670;28;20042;-66
2022/04/12 09:21:13;;;;;;;17.08;2.25;;;;;;;;;;4978158;28;20037;-66
2022/04/12 09:23:42;;;;;;;12.35;2.10;;;;;;;;;;4993337;28;20018;-66
2022/04/12 09:26:08;;;;;;;7.47;2.17;;;;;;;;;;4992480;28;20428;-66
2022/04/12 09:28:42;;;;;;;4.05;2.00;;;;;;;;;;4990107;28;20061;-66
2022/04/12 09:31:15;;;;;;;3.78;1.60;;;;;;;;;;4993370;28;20023;-66
2022/04/12 09:33:40;;;;;;;6.70;1.98;;;;;;;;;;4991047;28;20026;-66
2022/04/12 09:36:06;;;;;;;2.42;1.17;;;;;;;;;;4992911;28;20022;-66
2022/04/12 09:38:36;;;;;;;3.67;1.27;;;;;;;;;;4992413;28;20058;-66
2022/04/12 09:41:19;;;;;;;1.33;0.95;;;;;;;;;;4989566;28;20030;-66
2022/04/12 09:43:53;;;;;;;2.90;1.65;;;;;;;;;;4991904;28;20025;-66
2022/04/12 09:46:18;;;;;;;2.25;1.58;;;;;;;;;;4997802;28;20044;-66
2022/04/12 09:48:47;;;;;;;4.88;1.95;;;;;;;;;;4992989;28;20018;-66
2022/04/12 09:51:13;;;;;;;6.32;1.70;;;;;;;;;;4992472;28;20049;-66
2022/04/12 09:53:39;;;;;;;5.53;2.03;;;;;;;;;;4991211;28;20471;-66
2022/04/12 09:56:13;;;;;;;2.40;1.45;;;;;;;;;;4991209;28;20054;-66
2022/04/12 09:58:39;;;;;;;4.85;1.90;;;;;;;;;;4973999;28;20038;-66
2022/04/12 10:01:04;;;;;;;4.68;1.85;;;;;;;;;;4989812;28;20023;-66
2022/04/12 10:03:30;;;;;;;4.60;1.13;;;;;;;;;;4991411;28;20049;-66
2022/04/12 10:05:56;;;;;;;1.88;1.10;;;;;;;;;;4991285;28;20109;-66
2022/04/12 10:08:22;;;;;;;0.98;0.70;;;;;;;;;;4989921;28;20027;-66
2022/04/12 10:10:47;;;;;;;1.67;1.20;;;;;;;;;;4996002;28;20109;-67
2022/04/12 10:13:14;;;;;;;2.80;1.23;;;;;;;;;;4992417;28;20120;-66
2022/04/12 10:15:39;;;;;;;1.58;0.90;;;;;;;;;;4991733;28;20281;-66
2022/04/12 10:18:05;;;;;;;4.38;1.08;;;;;;;;;;4992529;28;20030;-67
2022/04/12 10:20:30;;;;;;;2.60;1.05;;;;;;;;;;4991800;28;20022;-66
2022/04/12 10:22:56;;;;;;;5.32;1.10;;;;;;;;;;4996466;28;20087;-66
2022/04/12 10:25:22;;;;;;;4.32;1.77;;;;;;;;;;4990473;28;20109;-66
2022/04/12 10:27:49;;;;;;;3.20;1.48;;;;;;;;;;4994090;28;20506;-66
2022/04/12 10:30:14;;;;;;;4.20;1.70;;;;;;;;;;4990857;28;20446;-66
2022/04/12 10:32:56;;;;;;;1.83;0.73;;;;;;;;;;4990190;28;20102;-66
2022/04/12 10:35:22;;;;;;;5.70;1.23;;;;;;;;;;4990279;28;20029;-67
2022/04/12 10:37:47;;;;;;;4.43;1.27;;;;;;;;;;4994180;28;20035;-66
2022/04/12 10:40:13;;;;;;;4.20;0.88;;;;;;;;;;4993264;28;20285;-66
2022/04/12 10:42:38;;;;;;;4.32;1.23;;;;;;;;;;4994896;28;20019;-66
2022/04/12 10:45:04;;;;;;;2.92;1.55;;;;;;;;;;4994251;28;20076;-66
2022/04/12 10:47:32;;;;;;;3.10;1.20;;;;;;;;;;4993449;28;20030;-66
2022/04/12 10:49:59;;;;;;;2.92;1.63;;;;;;;;;;4990729;28;20022;-66
2022/04/12 10:52:36;;;;;;;6.53;1.40;;;;;;;;;;4992687;28;20026;-66
2022/04/12 10:55:03;;;;;;;2.53;1.70;;;;;;;;;;4993306;28;20018;-66
2022/04/12 10:57:28;;;;;;;2.70;1.08;;;;;;;;;;4991819;28;20027;-66
2022/04/12 10:59:57;;;;;;;6.97;1.90;;;;;;;;;;4992630;28;20025;-66
2022/04/12 11:02:27;;;;;;;5.32;1.55;;;;;;;;;;4990107;28;20100;-66
2022/04/12 11:04:52;;;;;;;;;;;;;;;;;;4990468;28;20083;-66
2022/04/12 11:07:31;;;;;;;2.20;0.80;;;;;;;;;;4996677;28;19909;-66
2022/04/12 11:10:22;;;;;;;1.38;0.65;;;;;;;;;;4990768;28;20113;-67
2022/04/12 11:12:48;;;;;;;1.90;1.17;;;;;;;;;;4981350;28;20124;-66
2022/04/12 11:15:27;;;;;;;2.00;0.90;;;;;;;;;;4992182;28;20034;-66
2022/04/12 11:18:11;;;;;;;3.40;1.20;;;;;;;;;;4991268;28;20398;-66
2022/04/12 11:20:37;;;;;;;2.55;1.17;;;;;;;;;;4990610;28;20422;-66
2022/04/12 11:23:07;;;;;;;3.05;0.98;;;;;;;;;;4991775;28;20105;-66
2022/04/12 11:25:32;;;;;;;;;;;;;;;;;;4990335;28;20052;-66
2022/04/12 11:27:58;;;;;;;2.38;0.90;;;;;;;;;;4991060;28;19961;-66
2022/04/12 11:30:25;;;;;;;1.95;1.00;;;;;;;;;;4990604;28;20018;-66
2022/04/12 11:32:52;;;;;;;2.15;1.13;;;;;;;;;;4991371;28;20022;-66
2022/04/12 11:35:19;;;;;;;3.67;0.75;;;;;;;;;;4990056;28;20023;-66
2022/04/12 11:37:44;;;;;;;4.72;1.30;;;;;;;;;;4991681;28;20076;-66
2022/04/12 11:40:10;;;;;;;4.93;0.83;;;;;;;;;;4999054;28;20026;-66
2022/04/12 11:42:35;;;;;;;3.35;0.77;;;;;;;;;;4999317;28;20257;-66
2022/04/12 11:45:00;;;;;;;1.80;1.07;;;;;;;;;;4996550;28;20097;-66
2022/04/12 11:47:27;;;;;;;2.05;0.90;;;;;;;;;;4997916;28;20280;-66
2022/04/12 11:49:52;;;;;;;5.25;1.00;;;;;;;;;;4990652;28;20065;-66
2022/04/12 11:52:17;;;;;;;1.50;0.90;;;;;;;;;;4998878;28;20567;-66
2022/04/12 11:54:45;;;;;;;2.90;0.90;;;;;;;;;;4992293;28;20026;-66
2022/04/12 11:57:13;;;;;;;2.63;1.25;;;;;;;;;;4997263;28;20045;-66
2022/04/12 11:59:45;;;;;;;1.52;0.93;;;;;;;;;;4975074;28;20018;-66
2022/04/12 12:02:13;;;;;;;3.05;1.27;;;;;;;;;;4997782;28;20025;-66
2022/04/12 12:04:44;;;;;;;6.68;1.02;;;;;;;;;;4987793;28;20674;-66
2022/04/12 12:07:09;;;;;;;4.22;1.40;;;;;;;;;;4995946;28;20446;-66
2022/04/12 12:09:35;;;;;;;2.88;0.80;;;;;;;;;;4989705;28;20126;-66
2022/04/12 12:12:04;;;;;;;0.95;0.68;;;;;;;;;;5013255;23;20490;-71
2022/04/12 12:14:30;;;;;;;1.33;0.73;;;;;;;;;;4989239;28;20018;-71
2022/04/12 12:16:59;;;;;;;6.40;0.80;;;;;;;;;;4997083;28;20445;-69
2022/04/12 12:19:25;;;;;;;2.78;1.23;;;;;;;;;;4990264;28;20114;-70
2022/04/12 12:21:52;;;;;;;1.30;0.80;;;;;;;;;;4994234;28;20109;-71
2022/04/12 12:24:17;;;;;;;1.30;0.80;;;;;;;;;;4992092;28;20138;-70
2022/04/12 12:26:42;;;;;;;12.90;1.30;;;;;;;;;;4985924;28;20030;-70
2022/04/12 12:29:08;;;;;;;2.20;0.97;;;;;;;;;;4990687;28;20257;-70
2022/04/12 12:31:42;;;;;;;5.93;0.98;;;;;;;;;;4986789;28;20470;-70
2022/04/12 12:34:07;;;;;;;1.65;0.60;;;;;;;;;;4989548;28;20022;-71
2022/04/12 12:36:32;;;;;;;2.93;0.70;;;;;;;;;;4970801;28;20426;-71
2022/04/12 12:38:58;;;;;;;3.17;1.30;;;;;;;;;;4986341;28;20062;-71
2022/04/12 12:41:25;;;;;;;3.10;0.57;;;;;;;;;;4989738;28;20425;-71
2022/04/12 12:43:54;;;;;;;1.83;0.80;;;;;;;;;;4987388;28;20277;-70
2022/04/12 12:46:19;;;;;;;3.83;0.90;;;;;;;;;;4987595;28;20010;-72
2022/04/12 12:48:44;;;;;;;0.95;0.70;;;;;;;;;;4986573;28;20034;-71
2022/04/12 12:51:10;;;;;;;1.85;0.75;;;;;;;;;;4987453;28;20029;-72
2022/04/12 12:53:37;;;;;;;2.05;0.95;;;;;;;;;;4983040;28;20029;-72
2022/04/12 12:56:13;;;;;;;6.28;1.20;;;;;;;;;;4989451;28;20046;-71
2022/04/12 12:58:38;;;;;;;6.53;0.80;;;;;;;;;;4985325;28;20061;-71
2022/04/12 13:01:04;;;;;;;0.40;0.23;;;;;;;;;;4988608;28;20030;-71
2022/04/12 13:03:29;;;;;;;1.85;0.77;;;;;;;;;;4988462;28;20157;-70
2022/04/12 13:05:55;;;;;;;5.10;1.02;;;;;;;;;;4995201;28;20344;-72
2022/04/12 13:08:25;;;;;;;2.53;0.68;;;;;;;;;;4992926;28;20018;-72
2022/04/12 13:10:51;;;;;;;3.25;0.80;;;;;;;;;;4991373;28;20431;-71
2022/04/12 13:13:16;;;;;;;0.70;0.52;;;;;;;;;;4994738;28;20092;-71
2022/04/12 13:15:41;;;;;;;3.73;1.10;;;;;;;;;;4980447;28;20549;-70
2022/04/12 13:18:06;;;;;;;2.10;0.85;;;;;;;;;;4993717;28;21096;-72
2022/04/12 13:20:32;;;;;;;5.23;0.73;;;;;;;;;;4993681;28;20026;-72
2022/04/12 13:22:57;;;;;;;1.00;0.55;;;;;;;;;;4992489;28;20400;-72
2022/04/12 13:25:22;;;;;;;3.10;0.77;;;;;;;;;;4976665;28;20378;-72
2022/04/12 13:27:48;;;;;;;2.57;1.30;;;;;;;;;;4991059;28;20607;-72
2022/04/12 13:30:13;;;;;;;1.27;0.73;;;;;;;;;;4989331;28;20026;-72
2022/04/12 13:32:39;;;;;;;2.00;0.90;;;;;;;;;;4991737;28;20027;-70
2022/04/12 13:35:07;;;;;;;4.18;1.20;;;;;;;;;;4992774;28;20438;-72
2022/04/12 13:37:32;;;;;;;8.13;0.82;;;;;;;;;;4992342;28;20053;-72
2022/04/12 13:39:57;;;;;;;3.40;1.10;;;;;;;;;;4989306;28;20026;-71
2022/04/12 13:42:22;;;;;;;1.57;0.70;;;;;;;;;;4987900;28;20026;-71
2022/04/12 13:44:47;;;;;;;2.17;0.60;;;;;;;;;;4993936;28;20101;-72
2022/04/12 13:47:13;;;;;;;1.58;0.70;;;;;;;;;;4989579;28;20026;-71
2022/04/12 13:49:38;;;;;;;0.80;0.60;;;;;;;;;;4976489;28;20021;-70
2022/04/12 13:52:04;;;;;;;1.30;0.77;;;;;;;;;;4995276;28;20528;-71
2022/04/12 13:54:30;;;;;;;1.42;0.63;;;;;;;;;;4993905;28;20018;-71
2022/04/12 13:56:55;;;;;;;2.08;1.13;;;;;;;;;;5008077;28;20033;-71
2022/04/12 13:59:21;;;;;;;3.22;0.85;;;;;;;;;;5007175;28;20029;-71
2022/04/12 14:01:46;;;;;;;3.20;1.33;;;;;;;;;;5004093;28;20018;-71
2022/04/12 14:04:11;;;;;;;3.00;0.80;;;;;;;;;;4998979;28;20411;-71
2022/04/12 14:06:37;;;;;;;4.43;1.80;;;;;;;;;;5004491;28;20049;-72
2022/04/12 14:09:03;;;;;;;0.77;0.50;;;;;;;;;;4990119;28;20490;-72
2022/04/12 14:11:28;;;;;;;1.38;0.30;;;;;;;;;;4991425;28;20277;-71
2022/04/12 14:13:53;;;;;;;1.67;1.00;;;;;;;;;;4988030;28;20092;-71
2022/04/12 14:16:19;;;;;;;3.27;1.10;;;;;;;;;;4978250;28;20022;-71
2022/04/12 14:18:44;;;;;;;0.82;0.55;;;;;;;;;;4997808;28;20058;-72
2022/04/12 14:21:10;;;;;;;2.60;1.00;;;;;;;;;;4988320;28;20030;-71
2022/04/12 14:23:36;;;;;;;4.82;1.00;;;;;;;;;;4989601;28;20022;-71
2022/04/12 14:26:02;;;;;;;1.35;0.77;;;;;;;;;;4984648;28;20430;-71
2022/04/12 14:28:27;;;;;;;1.27;0.55;;;;;;;;;;4999423;28;20097;-72
2022/04/12 14:30:52;;;;;;;12.60;0.80;;;;;;;;;;4994483;28;20034;-70
2022/04/12 14:33:17;;;;;;;14.80;1.20;;;;;;;;;;4994843;28;20029;-71
2022/04/12 14:35:43;;;;;;;1.97;0.80;;;;;;;;;;4989920;28;20343;-71
2022/04/12 14:38:08;;;;;;;3.55;1.40;;;;;;;;;;5002746;28;20029;-72